Terminal Aerodrome Forecast
Issued by NWS Charleston, WV

Current Version | Previous Version | Text Only | Print | Product List | Glossary Off
Versions: 1 2 3 4 5 6 7 8 9 10 11 12 13 14 15 16 17 18 19 20 21 22 23 24

000
FTUS41 KRLX 291800 RRA
TAFEKN
TAF
KEKN 291800Z 2918/3018 29010KT P6SM BKN040
     FM292200 VRB03KT P6SM SCT040
     FM300500 VRB03KT 2SM BR SCT001
     FM300700 00000KT 1/2SM FG BKN001
     FM301200 VRB03KT 4SM BR BKN100
     FM301400 VRB03KT P6SM OVC060
     FM301700 VRB03KT 5SM -SHRA OVC040=

USA.gov is the U.S. government's official web portal to all federal, state and local government web resources and services.